createdAt,value
2022-11-25T00:03:26.910Z,3.50
2022-11-25T00:07:38.909Z,3.53
2022-11-25T00:11:49.851Z,2.93
2022-11-25T00:16:02.451Z,4.07
2022-11-25T00:20:21.670Z,3.93
2022-11-25T00:24:31.009Z,4.33
2022-11-25T00:28:43.633Z,3.87
2022-11-25T00:32:52.738Z,3.97
2022-11-25T00:37:07.754Z,4.97
2022-11-25T00:41:35.228Z,3.90
2022-11-25T00:46:16.648Z,4.37
2022-11-25T00:50:55.773Z,4.80
2022-11-25T00:55:17.292Z,4.10
2022-11-25T00:59:26.830Z,3.33
2022-11-25T01:03:56.191Z,4.80
2022-11-25T01:08:06.972Z,5.03
2022-11-25T01:12:22.649Z,5.00
2022-11-25T01:21:14.711Z,4.63
2022-11-25T01:25:24.435Z,5.67
2022-11-25T01:29:35.379Z,5.27
2022-11-25T01:33:58.292Z,5.00
2022-11-25T01:38:08.695Z,4.50
2022-11-25T01:42:19.894Z,4.20
2022-11-25T01:51:29.611Z,4.60
2022-11-25T01:56:01.391Z,4.50
2022-11-25T02:00:13.669Z,4.70
2022-11-25T02:04:38.031Z,4.53
2022-11-25T02:08:53.394Z,3.77
2022-11-25T02:13:03.069Z,5.13
2022-11-25T02:17:28.430Z,5.93
2022-11-25T02:21:47.331Z,5.63
2022-11-25T02:25:58.472Z,5.60
2022-11-25T02:30:09.554Z,4.70
2022-11-25T02:34:30.430Z,4.57
2022-11-25T02:38:55.147Z,4.63
2022-11-25T02:43:06.154Z,4.37
2022-11-25T02:47:26.291Z,4.00
2022-11-25T02:51:37.631Z,5.20
2022-11-25T02:55:48.474Z,6.23
2022-11-25T03:00:24.770Z,5.10
2022-11-25T03:14:03.935Z,5.97
2022-11-25T03:18:45.610Z,5.30
2022-11-25T03:23:20.570Z,5.57
2022-11-25T03:27:51.830Z,4.73
2022-11-25T03:32:04.327Z,5.07
2022-11-25T03:40:45.412Z,4.83
2022-11-25T03:44:56.653Z,4.60
2022-11-25T03:53:50.233Z,3.73
2022-11-25T03:57:59.490Z,4.93
2022-11-25T04:02:10.333Z,4.07
2022-11-25T04:06:22.145Z,4.90
2022-11-25T04:10:37.554Z,4.53
2022-11-25T04:14:49.774Z,5.13
2022-11-25T04:19:33.612Z,4.40
2022-11-25T04:28:49.474Z,3.80
2022-11-25T04:33:10.353Z,5.13
2022-11-25T04:37:20.669Z,3.80
2022-11-25T04:46:15.685Z,5.27
2022-11-25T04:50:27.375Z,5.47
2022-11-25T04:59:22.869Z,4.73
2022-11-25T05:03:32.192Z,4.33
2022-11-25T05:16:59.482Z,4.10
2022-11-25T05:21:09.093Z,4.17
2022-11-25T05:25:21.253Z,4.37
2022-11-25T05:34:10.773Z,3.37
2022-11-25T05:38:19.950Z,3.60
2022-11-25T05:43:18.131Z,3.90
2022-11-25T05:47:27.530Z,4.17
2022-11-25T05:51:37.087Z,4.00
2022-11-25T05:56:30.067Z,3.60
2022-11-25T06:00:40.751Z,4.03
2022-11-25T06:04:50.429Z,3.57
2022-11-25T06:08:59.692Z,3.87
2022-11-25T06:13:26.892Z,4.17
2022-11-25T06:31:31.891Z,4.67
2022-11-25T06:35:43.112Z,4.87
2022-11-25T06:39:52.869Z,4.17
2022-11-25T06:49:12.349Z,3.47
2022-11-25T06:58:34.781Z,3.67
2022-11-25T07:20:55.928Z,3.73
2022-11-25T07:25:15.094Z,3.10
2022-11-25T07:34:29.329Z,4.13
2022-11-25T07:39:18.312Z,3.93
2022-11-25T07:48:54.131Z,4.23
2022-11-25T07:53:12.756Z,3.20
2022-11-25T07:57:22.429Z,3.37
2022-11-25T08:01:33.506Z,4.20
2022-11-25T08:05:45.299Z,4.33
2022-11-25T08:09:56.961Z,4.27
2022-11-25T08:14:12.751Z,5.07
2022-11-25T08:18:22.732Z,3.77
2022-11-25T08:27:45.614Z,4.63
2022-11-25T08:31:55.313Z,4.53
2022-11-25T08:36:17.509Z,4.17
2022-11-25T08:40:27.223Z,3.77
2022-11-25T08:44:43.292Z,3.93
2022-11-25T08:48:53.003Z,3.47
2022-11-25T08:53:03.195Z,3.47
2022-11-25T08:57:12.936Z,4.33
2022-11-25T09:01:38.246Z,4.23
2022-11-25T09:05:47.753Z,3.07
2022-11-25T09:14:38.257Z,3.67
2022-11-25T09:25:13.075Z,3.43
2022-11-25T09:34:03.781Z,3.50
2022-11-25T09:43:13.867Z,2.77
2022-11-25T09:47:48.338Z,3.07
2022-11-25T09:57:06.750Z,3.00
2022-11-25T10:01:23.700Z,2.90
2022-11-25T10:05:39.829Z,2.83
2022-11-25T10:10:11.344Z,2.70
2022-11-25T10:14:31.499Z,2.37
2022-11-25T10:18:46.272Z,2.50
2022-11-25T10:23:02.167Z,2.37
2022-11-25T10:27:23.226Z,2.40
2022-11-25T10:31:38.363Z,1.50
2022-11-25T10:35:56.105Z,1.40
2022-11-25T10:40:08.678Z,2.07
2022-11-25T10:44:27.156Z,1.90
2022-11-25T10:48:52.676Z,2.70
2022-11-25T10:53:06.228Z,2.17
2022-11-25T10:57:22.569Z,2.20
2022-11-25T11:01:32.032Z,2.53
2022-11-25T11:05:49.768Z,2.43
2022-11-25T11:10:30.091Z,2.63
2022-11-25T11:15:17.889Z,2.73
2022-11-25T11:29:42.796Z,2.90
2022-11-25T11:34:27.048Z,2.43
2022-11-25T11:54:20.379Z,2.77
2022-11-25T11:58:58.342Z,2.23
2022-11-25T12:03:31.416Z,2.23
2022-11-25T12:08:21.328Z,2.10
2022-11-25T12:12:48.790Z,2.20
2022-11-25T12:47:03.369Z,2.87
2022-11-25T13:02:51.443Z,2.77
2022-11-25T13:12:19.474Z,2.33
2022-11-25T13:21:33.546Z,1.90
2022-11-25T13:31:21.186Z,2.30
2022-11-25T13:35:41.208Z,2.27
2022-11-25T13:54:18.810Z,2.60
2022-11-25T13:58:31.756Z,2.30
2022-11-25T14:02:45.662Z,2.60
2022-11-25T14:07:13.391Z,2.37
2022-11-25T14:11:53.947Z,2.83
2022-11-25T14:16:17.832Z,2.80
2022-11-25T14:20:37.668Z,2.87
2022-11-25T14:24:49.906Z,3.17
2022-11-25T14:29:05.008Z,3.00
2022-11-25T14:33:26.348Z,3.10
2022-11-25T14:38:05.155Z,3.53
2022-11-25T14:42:21.410Z,2.70
2022-11-25T14:46:37.247Z,2.97
2022-11-25T14:55:38.606Z,2.97
2022-11-25T15:04:31.015Z,2.40
2022-11-25T15:08:59.468Z,3.00
2022-11-25T15:13:25.727Z,2.77
2022-11-25T15:22:24.245Z,2.60
2022-11-25T15:26:38.188Z,2.80
2022-11-25T15:35:32.828Z,3.13
2022-11-25T15:39:52.867Z,2.93
2022-11-25T15:49:21.035Z,3.13
2022-11-25T16:09:36.874Z,3.40
2022-11-25T16:13:49.431Z,3.07
2022-11-25T16:22:15.549Z,2.83
2022-11-25T16:26:30.450Z,2.83
2022-11-25T16:30:45.988Z,2.63
2022-11-25T16:35:08.268Z,3.00
2022-11-25T16:39:30.367Z,3.30
2022-11-25T16:43:41.727Z,2.80
2022-11-25T16:47:56.051Z,3.43
2022-11-25T16:52:05.588Z,3.63
2022-11-25T16:56:17.668Z,2.70
2022-11-25T17:00:28.506Z,3.27
2022-11-25T17:04:37.890Z,3.00
2022-11-25T17:08:47.488Z,3.67
2022-11-25T17:13:00.075Z,3.97
2022-11-25T17:17:23.742Z,4.20
2022-11-25T17:21:33.568Z,5.10
2022-11-25T17:25:44.049Z,3.83
2022-11-25T17:29:54.379Z,3.50
2022-11-25T17:34:05.251Z,3.60
2022-11-25T17:47:20.190Z,3.70
2022-11-25T17:56:13.109Z,7.53
2022-11-25T18:00:24.090Z,6.77
2022-11-25T18:04:36.054Z,7.80
2022-11-25T18:08:45.750Z,4.97
2022-11-25T18:13:24.429Z,4.70
2022-11-25T18:17:33.711Z,5.60
2022-11-25T18:26:08.189Z,4.87
2022-11-25T18:35:00.689Z,4.13
2022-11-25T18:39:11.709Z,3.80
2022-11-25T18:43:43.950Z,4.40
2022-11-25T18:53:08.830Z,3.67
2022-11-25T18:57:29.767Z,3.63
2022-11-25T19:01:39.926Z,2.77
2022-11-25T19:05:53.468Z,3.03
2022-11-25T19:10:13.696Z,2.87
2022-11-25T19:14:30.731Z,3.00
2022-11-25T19:18:43.111Z,3.47
2022-11-25T19:23:00.634Z,3.37
2022-11-25T19:27:19.568Z,3.40
2022-11-25T19:31:34.073Z,3.63
2022-11-25T19:35:43.675Z,3.63
2022-11-25T19:39:54.187Z,4.67
2022-11-25T19:44:05.651Z,4.47
2022-11-25T19:48:18.689Z,4.27
2022-11-25T19:52:36.288Z,4.60
2022-11-25T19:56:45.794Z,4.20
2022-11-25T20:01:08.473Z,4.17
2022-11-25T20:05:21.128Z,3.57
2022-11-25T20:09:30.468Z,3.57
2022-11-25T20:13:39.708Z,3.63
2022-11-25T20:17:53.468Z,3.20
2022-11-25T20:22:02.613Z,3.70
2022-11-25T20:26:17.247Z,3.20
2022-11-25T20:30:28.049Z,3.37
2022-11-25T20:34:42.215Z,2.33
2022-11-25T20:38:55.025Z,2.80
2022-11-25T20:43:04.827Z,2.40
2022-11-25T20:47:17.326Z,2.63
2022-11-25T20:51:28.789Z,2.80
2022-11-25T20:55:41.303Z,3.07
2022-11-25T20:59:51.767Z,6.90
2022-11-25T21:04:01.288Z,2.87
2022-11-25T21:08:23.666Z,2.77
2022-11-25T21:12:36.317Z,2.53
2022-11-25T21:16:46.890Z,2.47
2022-11-25T21:20:58.447Z,2.73
2022-11-25T21:25:18.908Z,2.00
2022-11-25T21:29:33.208Z,2.20
2022-11-25T21:33:42.609Z,2.43
2022-11-25T21:37:51.908Z,2.60
2022-11-25T21:42:07.586Z,2.80
2022-11-25T21:46:23.030Z,2.60
2022-11-25T21:50:35.648Z,2.97
2022-11-25T21:54:45.629Z,2.87
2022-11-25T21:58:56.668Z,2.50
2022-11-25T22:03:07.920Z,2.63
2022-11-25T22:07:17.199Z,2.93
2022-11-25T22:11:33.109Z,2.27
2022-11-25T22:15:44.169Z,2.20
2022-11-25T22:19:53.822Z,4.47
2022-11-25T22:24:03.009Z,2.70
2022-11-25T22:28:16.109Z,2.10
2022-11-25T22:32:27.689Z,1.97
2022-11-25T22:36:40.187Z,2.60
2022-11-25T22:40:53.488Z,2.60
2022-11-25T22:45:21.604Z,2.40
2022-11-25T22:49:40.848Z,2.20
2022-11-25T22:53:50.107Z,2.30
2022-11-25T22:58:00.969Z,2.57
2022-11-25T23:02:16.494Z,2.23
2022-11-25T23:06:29.028Z,2.17
2022-11-25T23:10:38.271Z,2.60
2022-11-25T23:14:47.407Z,2.30
2022-11-25T23:18:56.548Z,2.53
2022-11-25T23:23:15.429Z,2.87
2022-11-25T23:27:24.588Z,2.97
2022-11-25T23:31:36.177Z,2.80
2022-11-25T23:35:45.526Z,2.50
2022-11-25T23:39:56.287Z,2.00
2022-11-25T23:44:14.649Z,2.50
2022-11-25T23:48:26.429Z,2.43
2022-11-25T23:52:35.585Z,2.80
2022-11-25T23:56:46.568Z,3.20
